Date,TemperatureHighF,TemperatureAvgF,TemperatureLowF,DewpointHighF,DewpointAvgF,DewpointLowF,HumidityHigh,HumidityAvg,HumidityLow,PressureMaxIn,PressureMinIn,WindSpeedMaxMPH,WindSpeedAvgMPH,GustSpeedMaxMPH,PrecipitationSumIn
2014-1-1,46.3,32.6,20.0,31.1,25.5,17.3,93,76,51,30.32,30.04,7,2,11,0.00
2014-1-2,33.5,23.3,10.0,29.9,20.8,5.1,96,90,80,30.30,29.84,10,5,17,0.00
2014-1-3,23.0,9.5,-1.2,7.9,2.7,-4.6,87,74,47,30.56,30.31,7,2,17,0.00
2014-1-4,39.6,25.6,7.1,23.0,15.3,3.8,91,66,47,30.32,30.08,13,5,21,0.01
2014-1-5,44.0,35.7,24.3,39.7,31.6,22.3,97,85,69,30.11,29.46,14,3,21,0.75
2014-1-6,24.2,0.5,-7.6,22.5,-5.7,-15.5,93,75,67,30.45,29.73,12,9,21,0.00
2014-1-7,12.0,2.8,-7.0,5.0,-5.2,-13.9,76,69,59,30.57,30.45,9,6,21,0.00
2014-1-8,29.9,20.1,9.2,22.0,12.9,3.5,84,74,64,30.52,30.43,8,3,9,0.00
2014-1-9,36.4,28.9,17.8,31.6,24.1,15.1,95,83,63,30.55,30.31,5,2,7,0.00
2014-1-10,52.0,41.4,32.8,49.2,40.1,31.5,97,95,90,30.31,29.74,12,3,14,0.09
2014-1-11,52.1,45.6,36.2,50.9,42.4,31.4,99,89,77,29.81,29.49,11,7,24,0.57
2014-1-12,44.6,38.2,32.7,35.4,32.5,28.9,89,80,65,30.08,29.80,10,5,13,0.00
2014-1-13,53.0,47.2,42.9,47.4,40.1,32.0,98,77,63,29.90,29.70,16,8,22,0.17
2014-1-14,48.5,39.5,28.9,44.2,33.0,23.3,98,79,50,29.93,29.75,11,5,16,0.03
2014-1-15,31.9,26.6,21.0,23.9,19.4,15.4,85,74,65,30.12,29.93,8,4,16,0.00
2014-1-16,31.3,24.8,17.8,28.4,20.4,13.4,89,83,72,30.08,29.79,13,6,18,0.00
2014-1-17,32.6,22.7,8.5,31.6,19.9,5.4,96,89,76,30.11,29.79,8,4,11,0.00
2014-1-18,26.1,19.5,11.5,23.6,15.4,7.4,93,84,68,30.10,29.81,9,5,13,0.00
2014-1-19,36.0,29.9,23.8,26.9,23.8,19.5,92,78,62,30.01,29.76,13,7,19,0.01
2014-1-20,40.4,36.4,31.9,30.6,28.2,26.1,90,72,65,29.94,29.71,10,4,19,0.00
2014-1-21,31.8,15.9,2.6,29.8,11.0,-4.4,95,81,66,30.24,29.81,13,6,19,0.00
2014-1-22,16.2,6.0,-7.7,13.0,-0.2,-11.0,90,76,58,30.25,30.09,9,4,12,0.00
2014-1-23,15.5,5.5,1.0,12.3,-2.1,-6.0,87,71,60,30.67,30.12,11,6,16,0.00
2014-1-24,21.7,8.8,-2.2,6.6,0.1,-5.5,86,69,51,30.68,29.91,19,8,22,0.00
2014-1-25,33.8,22.0,11.1,25.5,14.8,1.9,92,75,49,29.95,29.55,18,10,23,0.00
2014-1-26,43.0,26.3,8.3,32.4,16.0,-0.1,80,65,54,29.97,29.60,11,4,23,0.00
2014-1-27,42.7,12.1,-0.8,33.2,1.9,-10.1,81,63,44,30.49,29.60,22,8,29,0.00
2014-1-28,8.9,-0.9,-10.0,-5.1,-9.8,-15.0,84,66,46,30.56,30.41,6,1,10,0.00
2014-1-29,23.2,10.2,-7.0,5.7,-0.1,-11.8,88,64,45,30.43,30.34,9,3,14,0.00
2014-1-30,34.1,23.1,9.9,12.5,7.0,1.5,69,51,37,30.35,29.96,12,7,16,0.00
2014-1-31,41.3,36.0,31.1,28.1,18.6,10.9,81,50,38,30.17,30.04,7,3,15,0.00